sensor_id;sensor_type;location;lat;lon;timestamp;P1;durP1;ratioP1;P2;durP2;ratioP2
12212;SDS011;6169;44.158;22.788;2022-11-30T00:00:34;26.00;;;15.77;;
12212;SDS011;6169;44.158;22.788;2022-11-30T00:05:39;27.30;;;16.17;;
12212;SDS011;6169;44.158;22.788;2022-11-30T00:10:41;23.97;;;14.87;;
12212;SDS011;6169;44.158;22.788;2022-11-30T00:15:44;23.73;;;14.50;;
12212;SDS011;6169;44.158;22.788;2022-11-30T00:20:47;23.33;;;14.63;;
12212;SDS011;6169;44.158;22.788;2022-11-30T00:25:50;23.03;;;13.63;;
12212;SDS011;6169;44.158;22.788;2022-11-30T00:30:58;21.23;;;13.43;;
12212;SDS011;6169;44.158;22.788;2022-11-30T00:36:03;21.67;;;14.00;;
12212;SDS011;6169;44.158;22.788;2022-11-30T00:41:07;19.87;;;11.77;;
12212;SDS011;6169;44.158;22.788;2022-11-30T00:46:10;19.07;;;13.07;;
12212;SDS011;6169;44.158;22.788;2022-11-30T00:51:14;20.00;;;12.13;;
12212;SDS011;6169;44.158;22.788;2022-11-30T00:56:17;20.07;;;11.87;;
12212;SDS011;6169;44.158;22.788;2022-11-30T01:01:19;18.87;;;11.67;;
12212;SDS011;6169;44.158;22.788;2022-11-30T01:06:23;18.87;;;11.53;;
12212;SDS011;6169;44.158;22.788;2022-11-30T01:11:26;19.70;;;12.60;;
12212;SDS011;6169;44.158;22.788;2022-11-30T01:16:30;18.40;;;12.20;;
12212;SDS011;6169;44.158;22.788;2022-11-30T01:21:35;18.23;;;12.90;;
12212;SDS011;6169;44.158;22.788;2022-11-30T01:26:37;19.43;;;11.20;;
12212;SDS011;6169;44.158;22.788;2022-11-30T01:31:39;14.83;;;10.43;;
12212;SDS011;6169;44.158;22.788;2022-11-30T01:36:43;17.60;;;11.57;;
12212;SDS011;6169;44.158;22.788;2022-11-30T01:41:45;17.00;;;11.77;;
12212;SDS011;6169;44.158;22.788;2022-11-30T01:46:48;16.97;;;10.47;;
12212;SDS011;6169;44.158;22.788;2022-11-30T01:51:57;15.97;;;10.67;;
12212;SDS011;6169;44.158;22.788;2022-11-30T01:57:05;15.57;;;11.13;;
12212;SDS011;6169;44.158;22.788;2022-11-30T02:02:11;15.23;;;10.40;;
12212;SDS011;6169;44.158;22.788;2022-11-30T02:07:15;16.00;;;9.60;;
12212;SDS011;6169;44.158;22.788;2022-11-30T02:12:19;17.87;;;11.37;;
12212;SDS011;6169;44.158;22.788;2022-11-30T02:17:30;17.47;;;11.10;;
12212;SDS011;6169;44.158;22.788;2022-11-30T02:22:48;14.37;;;9.77;;
12212;SDS011;6169;44.158;22.788;2022-11-30T02:28:14;15.87;;;11.17;;
12212;SDS011;6169;44.158;22.788;2022-11-30T02:33:26;15.50;;;10.03;;
12212;SDS011;6169;44.158;22.788;2022-11-30T02:38:31;15.67;;;10.30;;
12212;SDS011;6169;44.158;22.788;2022-11-30T02:43:34;22.83;;;14.53;;
12212;SDS011;6169;44.158;22.788;2022-11-30T02:48:39;24.27;;;13.33;;
12212;SDS011;6169;44.158;22.788;2022-11-30T02:53:45;19.87;;;12.73;;
12212;SDS011;6169;44.158;22.788;2022-11-30T02:58:49;23.90;;;14.70;;
12212;SDS011;6169;44.158;22.788;2022-11-30T03:03:53;21.97;;;13.43;;
12212;SDS011;6169;44.158;22.788;2022-11-30T03:08:55;23.17;;;12.33;;
12212;SDS011;6169;44.158;22.788;2022-11-30T03:13:57;19.30;;;12.93;;
12212;SDS011;6169;44.158;22.788;2022-11-30T03:19:01;18.93;;;11.60;;
12212;SDS011;6169;44.158;22.788;2022-11-30T03:24:04;16.80;;;11.03;;
12212;SDS011;6169;44.158;22.788;2022-11-30T03:29:07;14.87;;;9.77;;
12212;SDS011;6169;44.158;22.788;2022-11-30T03:34:11;14.40;;;10.17;;
12212;SDS011;6169;44.158;22.788;2022-11-30T03:39:13;16.40;;;9.83;;
12212;SDS011;6169;44.158;22.788;2022-11-30T03:44:15;16.90;;;10.13;;
12212;SDS011;6169;44.158;22.788;2022-11-30T03:49:19;12.30;;;8.47;;
12212;SDS011;6169;44.158;22.788;2022-11-30T03:54:21;16.77;;;10.97;;
12212;SDS011;6169;44.158;22.788;2022-11-30T03:59:23;14.10;;;9.80;;
12212;SDS011;6169;44.158;22.788;2022-11-30T04:04:27;18.53;;;11.53;;
12212;SDS011;6169;44.158;22.788;2022-11-30T04:09:29;15.77;;;9.50;;
12212;SDS011;6169;44.158;22.788;2022-11-30T04:14:31;17.97;;;10.23;;
12212;SDS011;6169;44.158;22.788;2022-11-30T04:19:35;15.33;;;10.53;;
12212;SDS011;6169;44.158;22.788;2022-11-30T04:24:37;18.70;;;11.37;;
12212;SDS011;6169;44.158;22.788;2022-11-30T04:29:39;19.23;;;11.10;;
12212;SDS011;6169;44.158;22.788;2022-11-30T04:34:43;22.27;;;11.63;;
12212;SDS011;6169;44.158;22.788;2022-11-30T04:39:45;18.33;;;11.47;;
12212;SDS011;6169;44.158;22.788;2022-11-30T04:44:47;18.80;;;11.87;;
12212;SDS011;6169;44.158;22.788;2022-11-30T04:49:51;23.40;;;11.27;;
12212;SDS011;6169;44.158;22.788;2022-11-30T04:54:53;18.07;;;10.17;;
12212;SDS011;6169;44.158;22.788;2022-11-30T04:59:56;18.50;;;11.00;;
12212;SDS011;6169;44.158;22.788;2022-11-30T05:04:59;16.83;;;10.17;;
12212;SDS011;6169;44.158;22.788;2022-11-30T05:10:02;21.30;;;13.73;;
12212;SDS011;6169;44.158;22.788;2022-11-30T05:15:05;19.00;;;12.03;;
12212;SDS011;6169;44.158;22.788;2022-11-30T05:20:10;20.83;;;12.40;;
12212;SDS011;6169;44.158;22.788;2022-11-30T05:25:12;21.40;;;13.43;;
12212;SDS011;6169;44.158;22.788;2022-11-30T05:30:15;24.73;;;13.43;;
12212;SDS011;6169;44.158;22.788;2022-11-30T05:35:19;24.53;;;13.20;;
12212;SDS011;6169;44.158;22.788;2022-11-30T05:40:21;18.97;;;10.33;;
12212;SDS011;6169;44.158;22.788;2022-11-30T05:45:24;20.73;;;11.33;;
12212;SDS011;6169;44.158;22.788;2022-11-30T05:50:28;19.37;;;10.73;;
12212;SDS011;6169;44.158;22.788;2022-11-30T05:55:31;17.13;;;10.30;;
12212;SDS011;6169;44.158;22.788;2022-11-30T06:00:34;16.30;;;9.90;;
12212;SDS011;6169;44.158;22.788;2022-11-30T06:05:37;17.47;;;10.43;;
12212;SDS011;6169;44.158;22.788;2022-11-30T06:10:40;19.47;;;11.10;;
12212;SDS011;6169;44.158;22.788;2022-11-30T06:15:42;18.10;;;10.17;;
12212;SDS011;6169;44.158;22.788;2022-11-30T06:20:46;14.63;;;9.33;;
12212;SDS011;6169;44.158;22.788;2022-11-30T06:25:48;19.33;;;9.57;;
12212;SDS011;6169;44.158;22.788;2022-11-30T06:30:50;19.07;;;12.50;;
12212;SDS011;6169;44.158;22.788;2022-11-30T06:35:53;17.40;;;10.60;;
12212;SDS011;6169;44.158;22.788;2022-11-30T06:41:01;15.37;;;9.83;;
12212;SDS011;6169;44.158;22.788;2022-11-30T06:46:05;16.30;;;10.23;;
12212;SDS011;6169;44.158;22.788;2022-11-30T06:51:09;13.90;;;9.63;;
12212;SDS011;6169;44.158;22.788;2022-11-30T06:56:11;13.90;;;8.83;;
12212;SDS011;6169;44.158;22.788;2022-11-30T07:01:13;11.60;;;7.50;;
12212;SDS011;6169;44.158;22.788;2022-11-30T07:06:17;12.03;;;7.60;;
12212;SDS011;6169;44.158;22.788;2022-11-30T07:11:19;12.33;;;7.33;;
12212;SDS011;6169;44.158;22.788;2022-11-30T07:16:21;11.57;;;6.40;;
12212;SDS011;6169;44.158;22.788;2022-11-30T07:21:26;9.37;;;6.17;;
12212;SDS011;6169;44.158;22.788;2022-11-30T07:26:29;11.97;;;7.07;;
12212;SDS011;6169;44.158;22.788;2022-11-30T07:31:32;12.47;;;7.77;;
12212;SDS011;6169;44.158;22.788;2022-11-30T07:36:36;10.57;;;6.07;;
12212;SDS011;6169;44.158;22.788;2022-11-30T07:41:38;13.30;;;7.50;;
12212;SDS011;6169;44.158;22.788;2022-11-30T07:46:40;12.30;;;6.80;;
12212;SDS011;6169;44.158;22.788;2022-11-30T07:51:44;14.13;;;8.03;;
12212;SDS011;6169;44.158;22.788;2022-11-30T07:56:46;10.10;;;6.13;;
12212;SDS011;6169;44.158;22.788;2022-11-30T08:01:48;13.57;;;8.37;;
12212;SDS011;6169;44.158;22.788;2022-11-30T08:06:53;14.63;;;8.90;;
12212;SDS011;6169;44.158;22.788;2022-11-30T08:11:55;14.90;;;8.60;;
12212;SDS011;6169;44.158;22.788;2022-11-30T08:16:58;12.33;;;7.83;;
12212;SDS011;6169;44.158;22.788;2022-11-30T08:22:01;9.90;;;7.17;;
12212;SDS011;6169;44.158;22.788;2022-11-30T08:27:03;13.50;;;7.00;;
12212;SDS011;6169;44.158;22.788;2022-11-30T08:32:06;9.13;;;5.37;;
12212;SDS011;6169;44.158;22.788;2022-11-30T08:37:09;10.33;;;6.10;;
12212;SDS011;6169;44.158;22.788;2022-11-30T08:42:11;10.30;;;6.17;;
12212;SDS011;6169;44.158;22.788;2022-11-30T08:47:14;9.37;;;5.83;;
12212;SDS011;6169;44.158;22.788;2022-11-30T08:52:17;7.77;;;4.73;;
12212;SDS011;6169;44.158;22.788;2022-11-30T08:57:20;8.67;;;5.37;;
12212;SDS011;6169;44.158;22.788;2022-11-30T09:02:22;8.37;;;4.70;;
12212;SDS011;6169;44.158;22.788;2022-11-30T09:07:26;9.03;;;5.73;;
12212;SDS011;6169;44.158;22.788;2022-11-30T09:12:28;10.00;;;5.27;;
12212;SDS011;6169;44.158;22.788;2022-11-30T09:17:30;9.90;;;5.90;;
12212;SDS011;6169;44.158;22.788;2022-11-30T09:22:34;8.33;;;4.97;;
12212;SDS011;6169;44.158;22.788;2022-11-30T09:27:36;10.27;;;5.07;;
12212;SDS011;6169;44.158;22.788;2022-11-30T09:32:38;8.83;;;5.73;;
12212;SDS011;6169;44.158;22.788;2022-11-30T09:37:42;9.23;;;6.03;;
12212;SDS011;6169;44.158;22.788;2022-11-30T09:42:46;8.33;;;5.13;;
12212;SDS011;6169;44.158;22.788;2022-11-30T09:48:07;11.07;;;4.90;;
12212;SDS011;6169;44.158;22.788;2022-11-30T09:53:23;11.60;;;6.53;;
12212;SDS011;6169;44.158;22.788;2022-11-30T09:58:37;7.50;;;5.00;;
12212;SDS011;6169;44.158;22.788;2022-11-30T10:03:46;14.33;;;8.13;;
12212;SDS011;6169;44.158;22.788;2022-11-30T10:08:53;11.93;;;6.13;;
12212;SDS011;6169;44.158;22.788;2022-11-30T10:14:10;12.23;;;7.37;;
12212;SDS011;6169;44.158;22.788;2022-11-30T10:19:29;15.07;;;8.03;;
12212;SDS011;6169;44.158;22.788;2022-11-30T10:24:49;12.37;;;6.63;;
12212;SDS011;6169;44.158;22.788;2022-11-30T10:30:07;9.47;;;5.73;;
12212;SDS011;6169;44.158;22.788;2022-11-30T10:35:18;12.63;;;6.53;;
12212;SDS011;6169;44.158;22.788;2022-11-30T10:40:31;9.60;;;5.73;;
12212;SDS011;6169;44.158;22.788;2022-11-30T10:45:39;7.90;;;4.90;;
12212;SDS011;6169;44.158;22.788;2022-11-30T10:50:46;10.07;;;5.87;;
12212;SDS011;6169;44.158;22.788;2022-11-30T10:55:53;14.50;;;8.20;;
12212;SDS011;6169;44.158;22.788;2022-11-30T11:01:01;9.53;;;5.87;;
12212;SDS011;6169;44.158;22.788;2022-11-30T11:06:08;9.73;;;6.23;;
12212;SDS011;6169;44.158;22.788;2022-11-30T11:11:34;8.80;;;6.13;;
12212;SDS011;6169;44.158;22.788;2022-11-30T11:16:50;21.63;;;8.30;;
12212;SDS011;6169;44.158;22.788;2022-11-30T11:21:53;13.33;;;7.07;;
12212;SDS011;6169;44.158;22.788;2022-11-30T11:26:57;9.57;;;6.37;;
12212;SDS011;6169;44.158;22.788;2022-11-30T11:32:07;10.40;;;6.40;;
12212;SDS011;6169;44.158;22.788;2022-11-30T11:37:22;12.57;;;7.57;;
12212;SDS011;6169;44.158;22.788;2022-11-30T11:42:29;21.17;;;9.80;;
12212;SDS011;6169;44.158;22.788;2022-11-30T11:47:36;12.37;;;7.63;;
12212;SDS011;6169;44.158;22.788;2022-11-30T11:52:40;12.63;;;8.73;;
12212;SDS011;6169;44.158;22.788;2022-11-30T11:57:45;9.80;;;5.63;;
12212;SDS011;6169;44.158;22.788;2022-11-30T12:02:52;9.53;;;6.60;;
12212;SDS011;6169;44.158;22.788;2022-11-30T12:08:05;9.50;;;6.40;;
12212;SDS011;6169;44.158;22.788;2022-11-30T12:13:15;12.23;;;6.03;;
12212;SDS011;6169;44.158;22.788;2022-11-30T12:18:21;9.27;;;5.77;;
12212;SDS011;6169;44.158;22.788;2022-11-30T12:23:38;9.67;;;6.20;;
12212;SDS011;6169;44.158;22.788;2022-11-30T12:28:59;9.17;;;5.20;;
12212;SDS011;6169;44.158;22.788;2022-11-30T12:34:17;8.70;;;6.83;;
12212;SDS011;6169;44.158;22.788;2022-11-30T12:39:27;10.40;;;5.83;;
12212;SDS011;6169;44.158;22.788;2022-11-30T12:44:40;8.97;;;6.50;;
12212;SDS011;6169;44.158;22.788;2022-11-30T12:49:57;11.17;;;6.57;;
12212;SDS011;6169;44.158;22.788;2022-11-30T12:55:16;8.53;;;5.90;;
12212;SDS011;6169;44.158;22.788;2022-11-30T13:00:29;7.97;;;5.87;;
12212;SDS011;6169;44.158;22.788;2022-11-30T13:05:38;9.30;;;6.40;;
12212;SDS011;6169;44.158;22.788;2022-11-30T13:10:44;8.23;;;4.23;;
12212;SDS011;6169;44.158;22.788;2022-11-30T13:15:51;8.67;;;5.90;;
12212;SDS011;6169;44.158;22.788;2022-11-30T13:20:54;8.10;;;5.47;;
12212;SDS011;6169;44.158;22.788;2022-11-30T13:26:05;7.47;;;4.90;;
12212;SDS011;6169;44.158;22.788;2022-11-30T13:31:15;9.90;;;6.03;;
12212;SDS011;6169;44.158;22.788;2022-11-30T13:36:30;9.20;;;6.83;;
12212;SDS011;6169;44.158;22.788;2022-11-30T13:41:35;9.60;;;5.50;;
12212;SDS011;6169;44.158;22.788;2022-11-30T13:46:45;8.17;;;5.00;;
12212;SDS011;6169;44.158;22.788;2022-11-30T13:51:49;9.70;;;6.03;;
12212;SDS011;6169;44.158;22.788;2022-11-30T13:56:51;9.90;;;7.60;;
12212;SDS011;6169;44.158;22.788;2022-11-30T14:02:47;13.70;;;7.60;;
12212;SDS011;6169;44.158;22.788;2022-11-30T14:07:42;10.63;;;6.90;;
12212;SDS011;6169;44.158;22.788;2022-11-30T14:12:47;13.50;;;8.50;;
12212;SDS011;6169;44.158;22.788;2022-11-30T14:18:00;9.47;;;6.70;;
12212;SDS011;6169;44.158;22.788;2022-11-30T14:23:16;11.73;;;6.47;;
12212;SDS011;6169;44.158;22.788;2022-11-30T14:28:23;10.03;;;6.67;;
12212;SDS011;6169;44.158;22.788;2022-11-30T14:33:34;22.33;;;12.60;;
12212;SDS011;6169;44.158;22.788;2022-11-30T14:38:42;11.23;;;7.50;;
12212;SDS011;6169;44.158;22.788;2022-11-30T14:43:56;12.17;;;8.13;;
12212;SDS011;6169;44.158;22.788;2022-11-30T14:49:05;12.77;;;8.17;;
12212;SDS011;6169;44.158;22.788;2022-11-30T14:54:16;12.40;;;8.00;;
12212;SDS011;6169;44.158;22.788;2022-11-30T14:59:34;12.37;;;7.80;;
12212;SDS011;6169;44.158;22.788;2022-11-30T15:04:45;10.00;;;7.87;;
12212;SDS011;6169;44.158;22.788;2022-11-30T15:09:49;9.27;;;6.70;;
12212;SDS011;6169;44.158;22.788;2022-11-30T15:15:02;12.33;;;7.70;;
12212;SDS011;6169;44.158;22.788;2022-11-30T15:20:15;13.30;;;9.13;;
12212;SDS011;6169;44.158;22.788;2022-11-30T15:25:20;9.43;;;7.13;;
12212;SDS011;6169;44.158;22.788;2022-11-30T15:30:26;14.43;;;9.27;;
12212;SDS011;6169;44.158;22.788;2022-11-30T15:35:30;15.23;;;9.73;;
12212;SDS011;6169;44.158;22.788;2022-11-30T15:40:33;15.43;;;9.13;;
12212;SDS011;6169;44.158;22.788;2022-11-30T15:45:35;15.63;;;9.13;;
12212;SDS011;6169;44.158;22.788;2022-11-30T15:50:41;15.30;;;9.33;;
12212;SDS011;6169;44.158;22.788;2022-11-30T15:55:44;17.73;;;11.43;;
12212;SDS011;6169;44.158;22.788;2022-11-30T16:00:56;17.40;;;11.20;;
12212;SDS011;6169;44.158;22.788;2022-11-30T16:06:02;17.60;;;10.87;;
12212;SDS011;6169;44.158;22.788;2022-11-30T16:11:06;18.80;;;10.30;;
12212;SDS011;6169;44.158;22.788;2022-11-30T16:16:10;23.10;;;14.13;;
12212;SDS011;6169;44.158;22.788;2022-11-30T16:21:16;18.57;;;11.27;;
12212;SDS011;6169;44.158;22.788;2022-11-30T16:26:19;18.50;;;11.43;;
12212;SDS011;6169;44.158;22.788;2022-11-30T16:31:22;17.30;;;11.03;;
12212;SDS011;6169;44.158;22.788;2022-11-30T16:36:25;21.63;;;11.63;;
12212;SDS011;6169;44.158;22.788;2022-11-30T16:41:30;17.17;;;11.83;;
12212;SDS011;6169;44.158;22.788;2022-11-30T16:46:32;17.27;;;10.13;;
12212;SDS011;6169;44.158;22.788;2022-11-30T16:51:36;19.17;;;11.33;;
12212;SDS011;6169;44.158;22.788;2022-11-30T16:56:40;18.63;;;11.73;;
12212;SDS011;6169;44.158;22.788;2022-11-30T17:01:44;16.60;;;10.10;;
12212;SDS011;6169;44.158;22.788;2022-11-30T17:06:53;23.00;;;9.57;;
12212;SDS011;6169;44.158;22.788;2022-11-30T17:11:55;13.67;;;8.87;;
12212;SDS011;6169;44.158;22.788;2022-11-30T17:16:58;14.60;;;8.80;;
12212;SDS011;6169;44.158;22.788;2022-11-30T17:22:01;14.47;;;9.50;;
12212;SDS011;6169;44.158;22.788;2022-11-30T17:27:04;16.70;;;9.97;;
12212;SDS011;6169;44.158;22.788;2022-11-30T17:32:06;17.13;;;11.43;;
12212;SDS011;6169;44.158;22.788;2022-11-30T17:37:09;15.60;;;9.30;;
12212;SDS011;6169;44.158;22.788;2022-11-30T17:42:12;14.17;;;8.37;;
12212;SDS011;6169;44.158;22.788;2022-11-30T17:47:15;15.70;;;9.70;;
12212;SDS011;6169;44.158;22.788;2022-11-30T17:52:18;14.43;;;8.77;;
12212;SDS011;6169;44.158;22.788;2022-11-30T17:57:21;20.27;;;12.07;;
12212;SDS011;6169;44.158;22.788;2022-11-30T18:02:23;13.77;;;9.13;;
12212;SDS011;6169;44.158;22.788;2022-11-30T18:07:26;17.77;;;9.70;;
12212;SDS011;6169;44.158;22.788;2022-11-30T18:12:29;20.10;;;13.17;;
12212;SDS011;6169;44.158;22.788;2022-11-30T18:17:31;19.93;;;12.10;;
12212;SDS011;6169;44.158;22.788;2022-11-30T18:22:35;22.17;;;13.20;;
12212;SDS011;6169;44.158;22.788;2022-11-30T18:27:38;15.50;;;9.83;;
12212;SDS011;6169;44.158;22.788;2022-11-30T18:32:40;19.70;;;11.77;;
12212;SDS011;6169;44.158;22.788;2022-11-30T18:37:44;17.00;;;11.67;;
12212;SDS011;6169;44.158;22.788;2022-11-30T18:42:46;18.90;;;11.00;;
12212;SDS011;6169;44.158;22.788;2022-11-30T18:47:49;16.47;;;10.33;;
12212;SDS011;6169;44.158;22.788;2022-11-30T18:52:52;21.87;;;12.53;;
12212;SDS011;6169;44.158;22.788;2022-11-30T18:57:55;20.60;;;13.87;;
12212;SDS011;6169;44.158;22.788;2022-11-30T19:02:57;22.40;;;15.97;;
12212;SDS011;6169;44.158;22.788;2022-11-30T19:08:01;17.70;;;11.07;;
12212;SDS011;6169;44.158;22.788;2022-11-30T19:13:05;22.93;;;13.83;;
12212;SDS011;6169;44.158;22.788;2022-11-30T19:18:08;21.30;;;12.23;;
12212;SDS011;6169;44.158;22.788;2022-11-30T19:23:13;20.67;;;13.23;;
12212;SDS011;6169;44.158;22.788;2022-11-30T19:28:15;22.10;;;14.40;;
12212;SDS011;6169;44.158;22.788;2022-11-30T19:33:17;26.50;;;15.97;;
12212;SDS011;6169;44.158;22.788;2022-11-30T19:38:20;18.73;;;11.97;;
12212;SDS011;6169;44.158;22.788;2022-11-30T19:43:22;25.93;;;15.07;;
12212;SDS011;6169;44.158;22.788;2022-11-30T19:48:25;22.40;;;13.00;;
12212;SDS011;6169;44.158;22.788;2022-11-30T19:53:28;20.43;;;12.03;;
12212;SDS011;6169;44.158;22.788;2022-11-30T19:58:30;21.87;;;11.67;;
12212;SDS011;6169;44.158;22.788;2022-11-30T20:03:33;15.13;;;8.30;;
12212;SDS011;6169;44.158;22.788;2022-11-30T20:08:37;16.00;;;9.93;;
12212;SDS011;6169;44.158;22.788;2022-11-30T20:13:40;12.63;;;8.37;;
12212;SDS011;6169;44.158;22.788;2022-11-30T20:18:42;11.30;;;8.20;;
12212;SDS011;6169;44.158;22.788;2022-11-30T20:23:47;11.70;;;8.37;;
12212;SDS011;6169;44.158;22.788;2022-11-30T20:28:50;11.67;;;7.17;;
12212;SDS011;6169;44.158;22.788;2022-11-30T20:33:53;12.13;;;8.13;;
12212;SDS011;6169;44.158;22.788;2022-11-30T20:38:56;12.83;;;8.83;;
12212;SDS011;6169;44.158;22.788;2022-11-30T20:43:59;13.03;;;9.40;;
12212;SDS011;6169;44.158;22.788;2022-11-30T20:49:03;26.53;;;14.93;;
12212;SDS011;6169;44.158;22.788;2022-11-30T20:54:15;13.00;;;9.47;;
12212;SDS011;6169;44.158;22.788;2022-11-30T20:59:17;14.73;;;8.50;;
12212;SDS011;6169;44.158;22.788;2022-11-30T21:04:25;14.40;;;10.00;;
12212;SDS011;6169;44.158;22.788;2022-11-30T21:09:29;13.20;;;10.23;;
12212;SDS011;6169;44.158;22.788;2022-11-30T21:14:31;15.97;;;10.00;;
12212;SDS011;6169;44.158;22.788;2022-11-30T21:19:33;16.27;;;11.17;;
12212;SDS011;6169;44.158;22.788;2022-11-30T21:24:37;19.23;;;12.03;;
12212;SDS011;6169;44.158;22.788;2022-11-30T21:29:39;21.57;;;12.03;;
12212;SDS011;6169;44.158;22.788;2022-11-30T21:34:41;19.03;;;11.57;;
12212;SDS011;6169;44.158;22.788;2022-11-30T21:39:45;20.47;;;11.00;;
12212;SDS011;6169;44.158;22.788;2022-11-30T21:44:47;20.97;;;12.57;;
12212;SDS011;6169;44.158;22.788;2022-11-30T21:49:49;23.00;;;13.67;;
12212;SDS011;6169;44.158;22.788;2022-11-30T21:54:53;21.27;;;13.17;;
12212;SDS011;6169;44.158;22.788;2022-11-30T21:59:55;20.90;;;11.50;;
12212;SDS011;6169;44.158;22.788;2022-11-30T22:04:57;18.47;;;11.37;;
12212;SDS011;6169;44.158;22.788;2022-11-30T22:10:01;17.60;;;11.43;;
12212;SDS011;6169;44.158;22.788;2022-11-30T22:15:03;19.60;;;11.37;;
12212;SDS011;6169;44.158;22.788;2022-11-30T22:20:06;15.90;;;10.93;;
12212;SDS011;6169;44.158;22.788;2022-11-30T22:25:10;16.73;;;9.37;;
12212;SDS011;6169;44.158;22.788;2022-11-30T22:30:13;19.90;;;10.03;;
12212;SDS011;6169;44.158;22.788;2022-11-30T22:35:15;16.37;;;9.53;;
12212;SDS011;6169;44.158;22.788;2022-11-30T22:40:18;15.53;;;9.83;;
12212;SDS011;6169;44.158;22.788;2022-11-30T22:45:21;12.03;;;8.53;;
12212;SDS011;6169;44.158;22.788;2022-11-30T22:50:23;14.17;;;8.90;;
12212;SDS011;6169;44.158;22.788;2022-11-30T22:55:30;15.90;;;9.40;;
12212;SDS011;6169;44.158;22.788;2022-11-30T23:00:32;18.40;;;11.20;;
12212;SDS011;6169;44.158;22.788;2022-11-30T23:05:34;16.13;;;9.10;;
12212;SDS011;6169;44.158;22.788;2022-11-30T23:10:38;13.77;;;9.70;;
12212;SDS011;6169;44.158;22.788;2022-11-30T23:15:40;11.83;;;7.73;;
12212;SDS011;6169;44.158;22.788;2022-11-30T23:20:42;13.13;;;8.43;;
12212;SDS011;6169;44.158;22.788;2022-11-30T23:25:46;11.33;;;7.70;;
12212;SDS011;6169;44.158;22.788;2022-11-30T23:30:48;16.83;;;8.90;;
12212;SDS011;6169;44.158;22.788;2022-11-30T23:35:50;14.17;;;9.20;;
12212;SDS011;6169;44.158;22.788;2022-11-30T23:40:54;16.70;;;11.67;;
12212;SDS011;6169;44.158;22.788;2022-11-30T23:46:03;16.87;;;10.07;;
12212;SDS011;6169;44.158;22.788;2022-11-30T23:51:07;19.53;;;10.73;;
12212;SDS011;6169;44.158;22.788;2022-11-30T23:56:11;15.47;;;9.40;;
